Time;durP1;ratioP1;P1;durP2;ratioP2;P2;SDS_P1;SDS_P2;PMS_P1;PMS_P2;Temp;Humidity;BMP_temperature;BMP_pressure;BME280_temperature;BME280_humidity;BME280_pressure;Samples;Min_cycle;Max_cycle;Signal;HPM_P1;HPM_P2
2023/09/27 00:00:36;;;;;;;27.67;20.95;;;14.30;99.90;;;;;;5024537;28;20055;-84
2023/09/27 00:03:03;;;;;;;26.67;21.23;;;14.40;99.90;;;;;;5025417;28;20450;-84
2023/09/27 00:05:29;;;;;;;27.70;21.80;;;14.30;99.90;;;;;;5021366;28;20036;-84
2023/09/27 00:07:56;;;;;;;24.30;20.92;;;14.30;99.90;;;;;;5030221;28;20052;-84
2023/09/27 00:10:22;;;;;;;28.45;21.83;;;14.30;99.90;;;;;;5023699;28;20041;-84
2023/09/27 00:12:48;;;;;;;27.33;21.02;;;14.30;99.90;;;;;;5035019;28;20112;-84
2023/09/27 00:15:14;;;;;;;24.45;21.85;;;14.30;99.90;;;;;;5037358;28;20073;-84
2023/09/27 00:17:41;;;;;;;23.55;21.05;;;14.30;99.90;;;;;;5026400;28;20037;-84
2023/09/27 00:20:15;;;;;;;26.52;21.70;;;14.20;99.90;;;;;;5040000;28;20167;-84
2023/09/27 00:22:44;;;;;;;27.70;22.13;;;14.20;99.90;;;;;;5028723;28;20105;-83
2023/09/27 00:25:10;;;;;;;25.40;21.27;;;14.20;99.90;;;;;;5027599;28;20410;-84
2023/09/27 00:27:39;;;;;;;24.52;21.98;;;14.20;99.90;;;;;;5041324;28;20045;-84
2023/09/27 00:30:09;;;;;;;27.77;21.13;;;14.20;99.90;;;;;;5026617;28;20533;-84
2023/09/27 00:32:35;;;;;;;25.92;22.30;;;14.20;99.90;;;;;;5025535;28;20036;-84
2023/09/27 00:35:01;;;;;;;27.83;21.65;;;14.20;99.90;;;;;;5029484;28;20040;-84
2023/09/27 00:37:27;;;;;;;25.98;21.35;;;14.20;99.90;;;;;;5023743;28;20125;-84
2023/09/27 00:39:52;;;;;;;25.90;21.67;;;14.20;99.90;;;;;;5026543;28;20094;-84
2023/09/27 00:42:18;;;;;;;26.23;21.50;;;14.20;99.90;;;;;;5024929;28;20463;-85
2023/09/27 00:44:44;;;;;;;26.27;20.98;;;14.10;99.90;;;;;;5025270;28;20053;-84
2023/09/27 00:47:10;;;;;;;26.02;20.85;;;14.10;99.90;;;;;;5028361;28;20051;-84
2023/09/27 00:49:36;;;;;;;27.83;21.63;;;14.10;99.90;;;;;;5028676;28;20040;-84
2023/09/27 00:52:02;;;;;;;24.15;20.58;;;14.10;99.90;;;;;;5026413;28;20048;-84
2023/09/27 00:54:30;;;;;;;25.63;20.95;;;14.10;99.90;;;;;;5026773;28;20041;-84
2023/09/27 00:56:56;;;;;;;25.38;22.58;;;14.00;99.90;;;;;;5036685;28;20131;-83
2023/09/27 00:59:24;;;;;;;26.25;20.80;;;14.10;99.90;;;;;;5041379;28;20044;-84
2023/09/27 01:01:51;;;;;;;26.85;21.80;;;14.00;99.90;;;;;;5023625;28;20041;-84
2023/09/27 01:04:17;;;;;;;26.70;21.13;;;14.00;99.90;;;;;;5027636;28;20044;-83
2023/09/27 01:06:43;;;;;;;25.25;22.35;;;14.00;99.90;;;;;;5028603;28;20043;-84
2023/09/27 01:09:11;;;;;;;29.45;22.33;;;14.00;99.90;;;;;;5028384;28;20064;-84
2023/09/27 01:11:37;;;;;;;26.45;21.10;;;13.90;99.90;;;;;;5036928;28;20155;-84
2023/09/27 01:14:03;;;;;;;26.00;22.77;;;13.90;99.90;;;;;;5039676;28;20041;-84
2023/09/27 01:16:29;;;;;;;28.80;22.45;;;13.80;99.90;;;;;;5036297;28;20418;-83
2023/09/27 01:19:01;;;;;;;27.15;22.98;;;13.80;99.90;;;;;;5028072;28;20257;-84
2023/09/27 01:21:29;;;;;;;28.42;22.73;;;13.90;99.90;;;;;;5036121;28;20124;-84
2023/09/27 01:23:55;;;;;;;24.33;21.27;;;13.80;99.90;;;;;;5038162;28;20044;-83
2023/09/27 01:26:22;;;;;;;26.73;21.50;;;13.80;99.90;;;;;;5041406;28;20483;-84
2023/09/27 01:28:48;;;;;;;25.23;21.55;;;13.80;99.90;;;;;;5028911;28;20287;-84
2023/09/27 01:31:14;;;;;;;25.10;21.70;;;13.90;99.90;;;;;;5028111;28;20037;-83
2023/09/27 01:33:43;;;;;;;28.05;22.17;;;13.80;99.90;;;;;;5032568;28;20080;-84
2023/09/27 01:36:08;;;;;;;25.83;21.48;;;13.80;99.90;;;;;;5016749;28;20578;-84
2023/09/27 01:38:34;;;;;;;27.60;22.45;;;13.80;99.90;;;;;;5026783;28;20116;-83
2023/09/27 01:41:00;;;;;;;27.30;22.02;;;13.80;99.90;;;;;;5023156;28;20457;-84
2023/09/27 01:43:26;;;;;;;25.58;22.23;;;13.80;99.90;;;;;;5018845;28;20037;-83
2023/09/27 01:45:51;;;;;;;31.02;22.20;;;13.70;99.90;;;;;;5023805;28;20454;-83
2023/09/27 01:48:19;;;;;;;28.60;22.77;;;13.70;99.90;;;;;;5022253;28;20045;-83
2023/09/27 01:50:45;;;;;;;28.92;22.33;;;13.80;99.90;;;;;;5027664;28;20048;-84
2023/09/27 01:53:11;;;;;;;26.35;22.48;;;13.70;99.90;;;;;;5017828;28;20670;-84
2023/09/27 01:55:36;;;;;;;24.77;21.70;;;13.70;99.90;;;;;;5032639;28;20037;-84
2023/09/27 01:58:03;;;;;;;25.88;22.20;;;13.70;99.90;;;;;;5021020;28;20037;-83
2023/09/27 02:00:28;;;;;;;27.08;22.25;;;13.70;99.90;;;;;;5031181;28;20037;-83
2023/09/27 02:02:59;;;;;;;26.88;22.88;;;13.60;99.90;;;;;;5034872;28;20468;-84
2023/09/27 02:05:27;;;;;;;29.00;22.42;;;13.60;99.90;;;;;;5015018;28;20052;-84
2023/09/27 02:07:53;;;;;;;26.95;22.75;;;13.60;99.90;;;;;;5037733;28;20045;-83
2023/09/27 02:10:19;;;;;;;27.42;23.50;;;13.60;99.90;;;;;;5022060;28;20052;-84
2023/09/27 02:12:44;;;;;;;24.92;22.25;;;13.60;99.90;;;;;;5020817;28;20316;-84
2023/09/27 02:15:14;;;;;;;29.20;23.38;;;13.50;99.90;;;;;;5016069;28;20041;-84
2023/09/27 02:17:41;;;;;;;26.55;22.52;;;13.60;99.90;;;;;;5019610;28;20072;-84
2023/09/27 02:20:12;;;;;;;29.58;22.25;;;13.60;99.90;;;;;;5033799;28;20116;-83
2023/09/27 02:22:40;;;;;;;28.88;23.83;;;13.60;99.90;;;;;;5020303;28;20472;-84
2023/09/27 02:25:11;;;;;;;28.08;24.40;;;13.60;99.90;;;;;;5021612;28;20420;-84
2023/09/27 02:27:40;;;;;;;28.15;23.83;;;13.50;99.90;;;;;;5024791;28;20423;-84
2023/09/27 02:30:11;;;;;;;28.42;24.50;;;13.50;99.90;;;;;;5020278;28;20879;-83
2023/09/27 02:32:40;;;;;;;27.70;23.20;;;13.40;99.90;;;;;;5020952;28;20128;-83
2023/09/27 02:35:09;;;;;;;27.75;23.15;;;13.40;99.90;;;;;;5014188;28;20102;-83
2023/09/27 02:37:38;;;;;;;26.75;22.83;;;13.40;99.90;;;;;;5025883;28;20575;-83
2023/09/27 02:40:11;;;;;;;31.27;23.83;;;13.40;99.90;;;;;;5033827;28;20044;-83
2023/09/27 02:42:49;;;;;;;27.48;23.08;;;13.30;99.90;;;;;;5019786;28;20423;-83
2023/09/27 02:45:14;;;;;;;32.45;24.05;;;13.30;99.90;;;;;;5016457;28;20056;-83
2023/09/27 02:47:45;;;;;;;26.50;23.63;;;13.40;99.90;;;;;;5014690;28;20041;-83
2023/09/27 02:50:12;;;;;;;28.35;23.17;;;13.30;99.90;;;;;;5025319;28;20399;-83
2023/09/27 02:52:40;;;;;;;29.88;23.85;;;13.30;99.90;;;;;;5035439;28;20554;-83
2023/09/27 02:55:08;;;;;;;27.80;22.95;;;13.30;99.90;;;;;;5034564;28;20557;-83
2023/09/27 02:57:34;;;;;;;29.25;22.98;;;13.30;99.90;;;;;;5023481;28;20036;-83
2023/09/27 03:00:03;;;;;;;25.63;21.00;;;13.30;99.90;;;;;;5032882;28;20412;-83
2023/09/27 03:02:31;;;;;;;32.20;23.17;;;13.30;99.90;;;;;;5031806;28;20067;-83
2023/09/27 03:04:58;;;;;;;29.67;23.10;;;13.30;99.90;;;;;;5033496;28;20048;-83
2023/09/27 03:07:23;;;;;;;29.83;23.35;;;13.20;99.90;;;;;;5015263;28;20033;-83
2023/09/27 03:09:49;;;;;;;27.30;22.00;;;13.30;99.90;;;;;;5033353;28;20397;-83
2023/09/27 03:12:14;;;;;;;25.23;20.92;;;13.30;99.90;;;;;;5010670;28;20048;-84
2023/09/27 03:14:40;;;;;;;26.35;22.65;;;13.30;99.90;;;;;;5028114;28;20041;-83
2023/09/27 03:17:06;;;;;;;29.95;23.00;;;13.30;99.90;;;;;;5025615;28;20148;-83
2023/09/27 03:19:32;;;;;;;27.05;21.63;;;13.30;99.90;;;;;;5026695;28;20124;-83
2023/09/27 03:22:01;;;;;;;25.42;21.60;;;13.30;99.90;;;;;;5018097;28;20421;-83
2023/09/27 03:24:27;;;;;;;30.30;22.52;;;13.30;99.90;;;;;;5024882;28;20058;-83
2023/09/27 03:26:52;;;;;;;26.35;22.45;;;13.30;99.90;;;;;;5019010;28;20487;-83
2023/09/27 03:29:18;;;;;;;29.00;23.20;;;13.20;99.90;;;;;;5015659;28;20039;-82
2023/09/27 03:31:44;;;;;;;31.02;23.25;;;13.20;99.90;;;;;;5021541;28;20445;-83
2023/09/27 03:34:09;;;;;;;26.88;22.27;;;13.20;99.90;;;;;;5025260;28;20103;-83
2023/09/27 03:36:35;;;;;;;27.90;23.05;;;13.20;99.90;;;;;;5032317;28;20075;-83
2023/09/27 03:39:00;;;;;;;27.48;22.67;;;13.10;99.90;;;;;;5020171;28;20235;-83
2023/09/27 03:41:29;;;;;;;31.02;23.27;;;13.10;99.90;;;;;;5036120;28;20503;-82
2023/09/27 03:43:55;;;;;;;27.90;23.88;;;13.20;99.90;;;;;;5019532;28;20079;-83
2023/09/27 03:46:21;;;;;;;30.52;23.02;;;13.00;99.90;;;;;;5022379;28;20141;-82
2023/09/27 03:48:47;;;;;;;30.38;24.23;;;13.10;99.90;;;;;;5023813;28;20481;-82
2023/09/27 03:51:12;;;;;;;29.23;23.80;;;13.00;99.90;;;;;;5023110;28;20109;-82
2023/09/27 03:53:38;;;;;;;32.83;23.48;;;13.10;99.90;;;;;;5024006;28;20446;-83
2023/09/27 03:56:04;;;;;;;30.80;23.58;;;13.00;99.90;;;;;;5037586;28;20094;-82
2023/09/27 03:58:29;;;;;;;29.58;24.35;;;12.90;99.90;;;;;;5026386;28;20046;-83
2023/09/27 04:00:55;;;;;;;34.33;24.92;;;12.90;99.90;;;;;;5033607;28;20119;-82
2023/09/27 04:03:21;;;;;;;32.58;26.38;;;12.90;99.90;;;;;;5038424;28;20353;-82
2023/09/27 04:05:46;;;;;;;33.10;26.38;;;12.90;99.90;;;;;;5034281;28;20090;-82
2023/09/27 04:08:17;;;;;;;30.38;24.77;;;12.90;99.90;;;;;;5021540;28;20041;-82
2023/09/27 04:10:43;;;;;;;32.97;26.55;;;12.80;99.90;;;;;;5034179;28;20131;-82
2023/09/27 04:13:09;;;;;;;33.97;26.95;;;12.90;99.90;;;;;;5025359;28;20162;-82
2023/09/27 04:15:35;;;;;;;33.63;27.13;;;12.90;99.90;;;;;;5030961;28;20124;-82
2023/09/27 04:18:01;;;;;;;33.90;27.52;;;12.80;99.90;;;;;;5029005;28;20115;-82
2023/09/27 04:20:27;;;;;;;33.95;28.02;;;12.80;99.90;;;;;;5018580;28;20037;-82
2023/09/27 04:22:54;;;;;;;35.53;27.75;;;12.80;99.90;;;;;;5021497;28;20176;-82
2023/09/27 04:25:20;;;;;;;34.03;27.88;;;12.80;99.90;;;;;;5018447;28;20061;-82
2023/09/27 04:27:49;;;;;;;37.15;30.15;;;12.80;99.90;;;;;;5022677;28;20062;-82
2023/09/27 04:30:18;;;;;;;34.78;28.55;;;12.70;99.90;;;;;;5023280;28;20123;-82
2023/09/27 04:32:45;;;;;;;38.92;29.45;;;12.70;99.90;;;;;;5023824;28;20100;-82
2023/09/27 04:35:12;;;;;;;34.58;27.60;;;12.70;99.90;;;;;;5050362;28;20555;-82
2023/09/27 04:37:39;;;;;;;37.22;28.52;;;12.60;99.90;;;;;;5020500;28;20503;-81
2023/09/27 04:40:12;;;;;;;38.55;30.05;;;12.60;99.90;;;;;;5023789;28;20052;-82
2023/09/27 04:42:38;;;;;;;37.30;28.70;;;12.60;99.90;;;;;;5033102;28;20488;-82
2023/09/27 04:45:04;;;;;;;34.63;28.67;;;12.50;99.90;;;;;;5036029;28;20575;-82
2023/09/27 04:47:30;;;;;;;35.88;28.42;;;12.50;99.90;;;;;;5020159;28;20090;-82
2023/09/27 04:49:56;;;;;;;35.15;28.67;;;12.50;99.90;;;;;;5020018;28;20041;-82
2023/09/27 04:52:22;;;;;;;36.90;29.05;;;12.50;99.90;;;;;;5018975;28;20047;-82
2023/09/27 04:54:48;;;;;;;36.55;29.27;;;12.50;99.90;;;;;;5029901;28;20122;-81
2023/09/27 04:57:14;;;;;;;37.20;29.95;;;12.50;99.90;;;;;;5017762;28;20670;-82
2023/09/27 04:59:40;;;;;;;35.08;28.85;;;12.50;99.90;;;;;;5020646;28;21239;-82
2023/09/27 05:02:05;;;;;;;35.95;28.98;;;12.50;99.90;;;;;;5034792;28;20040;-82
2023/09/27 05:04:31;;;;;;;37.47;30.95;;;12.40;99.90;;;;;;5039827;28;20098;-82
2023/09/27 05:06:56;;;;;;;41.55;31.33;;;12.40;99.90;;;;;;5035134;28;20065;-82
2023/09/27 05:09:22;;;;;;;47.75;30.40;;;12.40;99.90;;;;;;5028468;28;20032;-82
2023/09/27 05:11:48;;;;;;;39.88;30.55;;;12.40;99.90;;;;;;5030346;28;20033;-82
2023/09/27 05:14:14;;;;;;;38.28;30.45;;;12.40;99.90;;;;;;5041833;28;20037;-82
2023/09/27 05:16:40;;;;;;;36.70;29.80;;;12.40;99.90;;;;;;5021411;28;20246;-82
2023/09/27 05:19:05;;;;;;;37.90;30.27;;;12.40;99.90;;;;;;5039644;28;20095;-82
2023/09/27 05:21:31;;;;;;;41.35;29.90;;;12.40;99.90;;;;;;5024258;28;20517;-82
2023/09/27 05:23:56;;;;;;;39.67;29.83;;;12.40;99.90;;;;;;5025680;28;20277;-82
2023/09/27 05:26:22;;;;;;;39.05;29.65;;;12.40;99.90;;;;;;5041092;28;20409;-82
2023/09/27 05:28:48;;;;;;;40.97;28.63;;;12.40;99.90;;;;;;5025503;28;20036;-82
2023/09/27 05:31:14;;;;;;;41.88;29.13;;;12.40;99.90;;;;;;5026008;28;20028;-82
2023/09/27 05:33:40;;;;;;;40.85;29.77;;;12.40;99.90;;;;;;5039823;28;20487;-82
2023/09/27 05:36:05;;;;;;;41.08;29.67;;;12.50;99.90;;;;;;5026477;28;20270;-82
2023/09/27 05:38:31;;;;;;;35.10;25.88;;;12.50;99.90;;;;;;5039822;28;20040;-82
2023/09/27 05:40:57;;;;;;;35.35;25.73;;;12.50;99.90;;;;;;5025245;28;20048;-82
2023/09/27 05:43:22;;;;;;;38.85;26.98;;;12.50;99.90;;;;;;5038067;28;20286;-82
2023/09/27 05:45:48;;;;;;;36.70;27.67;;;12.60;99.90;;;;;;5022052;28;20040;-82
2023/09/27 05:48:14;;;;;;;41.17;27.42;;;12.70;99.90;;;;;;5018503;28;20190;-82
2023/09/27 05:50:44;;;;;;;36.05;27.30;;;12.70;99.90;;;;;;5022554;28;20522;-82
2023/09/27 05:53:11;;;;;;;36.35;26.30;;;12.70;99.90;;;;;;5028482;28;20272;-82
2023/09/27 05:55:37;;;;;;;38.38;26.92;;;12.70;99.90;;;;;;5022949;28;20044;-82
2023/09/27 05:58:03;;;;;;;34.58;26.52;;;12.70;99.90;;;;;;5022407;28;20748;-82
2023/09/27 06:00:37;;;;;;;36.70;26.42;;;12.80;99.90;;;;;;5033401;28;20075;-81
2023/09/27 06:03:04;;;;;;;39.10;27.83;;;12.80;99.90;;;;;;5022430;28;20056;-82
2023/09/27 06:05:30;;;;;;;36.03;26.48;;;12.80;99.90;;;;;;5025156;28;20048;-82
2023/09/27 06:07:55;;;;;;;35.00;26.13;;;12.80;99.90;;;;;;5038384;28;20055;-82
2023/09/27 06:10:22;;;;;;;35.78;25.40;;;12.80;99.90;;;;;;5024971;28;20072;-82
2023/09/27 06:12:47;;;;;;;34.55;25.35;;;12.80;99.90;;;;;;5023348;28;20040;-82
2023/09/27 06:15:16;;;;;;;31.52;25.15;;;12.80;99.90;;;;;;5027018;28;20064;-82
2023/09/27 06:17:43;;;;;;;37.95;26.80;;;12.80;99.90;;;;;;5021956;28;20275;-82
2023/09/27 06:20:20;;;;;;;35.65;26.42;;;12.80;99.90;;;;;;5034784;28;20445;-83
2023/09/27 06:22:52;;;;;;;36.30;26.60;;;12.90;99.90;;;;;;5035350;28;20079;-82
2023/09/27 06:25:18;;;;;;;37.20;26.35;;;12.90;99.90;;;;;;5039260;28;20312;-82
2023/09/27 06:27:44;;;;;;;35.90;27.05;;;13.00;99.90;;;;;;5033184;28;20033;-82
2023/09/27 06:30:11;;;;;;;36.85;26.95;;;13.00;99.90;;;;;;5039668;28;20040;-82
2023/09/27 06:32:37;;;;;;;35.15;26.73;;;13.10;99.90;;;;;;5031604;28;20040;-82
2023/09/27 06:35:12;;;;;;;36.17;27.02;;;13.10;99.90;;;;;;5037899;28;20050;-82
2023/09/27 06:37:43;;;;;;;;;;;13.10;99.90;;;;;;5036058;28;20521;-82
2023/09/27 06:40:13;;;;;;;37.90;26.55;;;13.20;99.90;;;;;;5037861;28;19978;-82
2023/09/27 06:42:39;;;;;;;36.85;26.65;;;13.20;99.90;;;;;;5034498;28;20522;-82
2023/09/27 06:45:06;;;;;;;35.78;26.38;;;13.30;99.90;;;;;;5036141;28;20057;-82
2023/09/27 06:47:35;;;;;;;37.40;26.15;;;13.40;99.90;;;;;;5025480;28;20033;-82
2023/09/27 06:50:02;;;;;;;35.42;26.15;;;13.50;99.90;;;;;;5024655;28;20095;-82
2023/09/27 06:52:29;;;;;;;35.30;26.60;;;13.60;99.90;;;;;;5020757;28;20032;-82
2023/09/27 06:54:55;;;;;;;35.30;26.58;;;13.70;99.90;;;;;;5024299;28;20119;-82
2023/09/27 06:57:20;;;;;;;39.13;27.63;;;13.80;99.90;;;;;;5038512;28;20460;-83
2023/09/27 06:59:46;;;;;;;36.13;26.90;;;13.90;99.90;;;;;;5020220;28;20029;-82
2023/09/27 07:02:12;;;;;;;38.35;27.13;;;14.00;99.90;;;;;;5024714;28;20025;-82
2023/09/27 07:04:39;;;;;;;37.38;27.75;;;14.20;99.90;;;;;;5033904;28;20431;-82
2023/09/27 07:07:07;;;;;;;37.33;28.42;;;14.30;99.90;;;;;;5021284;28;20044;-82
2023/09/27 07:09:33;;;;;;;37.88;26.83;;;14.50;99.90;;;;;;5024049;28;20094;-82
2023/09/27 07:11:59;;;;;;;39.97;28.35;;;14.60;99.90;;;;;;5026701;28;20036;-82
2023/09/27 07:14:24;;;;;;;35.58;27.33;;;14.70;99.90;;;;;;5038085;28;20195;-82
2023/09/27 07:16:50;;;;;;;35.60;27.45;;;14.80;99.90;;;;;;5037196;28;20431;-82
2023/09/27 07:19:17;;;;;;;39.15;28.00;;;14.90;99.90;;;;;;5022438;28;20417;-82
2023/09/27 07:21:44;;;;;;;33.95;26.25;;;15.00;99.90;;;;;;5023322;28;20049;-82
2023/09/27 07:24:10;;;;;;;36.53;27.00;;;15.20;99.90;;;;;;5022352;28;20044;-82
2023/09/27 07:26:37;;;;;;;36.40;25.98;;;15.20;99.90;;;;;;5034936;28;20135;-82
2023/09/27 07:29:03;;;;;;;35.88;27.23;;;15.40;99.90;;;;;;5047002;28;20085;-82
2023/09/27 07:31:29;;;;;;;37.60;27.20;;;15.40;99.90;;;;;;5022588;28;20049;-82
2023/09/27 07:33:56;;;;;;;37.47;27.88;;;15.50;99.90;;;;;;5022118;28;20068;-83
2023/09/27 07:36:24;;;;;;;36.03;26.13;;;15.60;99.90;;;;;;5023158;28;20075;-82
2023/09/27 07:38:51;;;;;;;34.17;26.52;;;15.70;99.90;;;;;;5025169;28;20036;-82
2023/09/27 07:41:16;;;;;;;33.85;26.45;;;15.80;99.90;;;;;;5022972;28;20086;-83
2023/09/27 07:43:42;;;;;;;34.10;26.38;;;15.90;99.90;;;;;;5036849;28;20548;-82
2023/09/27 07:46:09;;;;;;;34.47;26.88;;;16.10;99.90;;;;;;5022639;28;20044;-83
2023/09/27 07:48:38;;;;;;;32.40;25.15;;;16.30;99.90;;;;;;5024796;28;20056;-82
2023/09/27 07:51:14;;;;;;;31.40;24.70;;;16.50;99.90;;;;;;5016919;28;20127;-82
2023/09/27 07:53:41;;;;;;;32.90;24.95;;;16.70;99.90;;;;;;5020783;28;20488;-83
2023/09/27 07:56:19;;;;;;;33.72;25.33;;;16.90;99.90;;;;;;5035334;28;20044;-83
2023/09/27 07:58:45;;;;;;;33.78;24.15;;;16.90;99.90;;;;;;5016481;28;20048;-83
2023/09/27 08:01:12;;;;;;;33.72;24.05;;;16.90;99.90;;;;;;5021807;28;20703;-83
2023/09/27 08:03:38;;;;;;;31.08;23.48;;;16.80;99.90;;;;;;5036449;28;20033;-83
2023/09/27 08:06:04;;;;;;;31.73;22.30;;;16.90;99.90;;;;;;5020528;28;20037;-82
2023/09/27 08:08:30;;;;;;;32.40;23.75;;;17.00;99.90;;;;;;5024605;28;20534;-83
2023/09/27 08:10:57;;;;;;;32.22;23.38;;;16.90;99.90;;;;;;5025002;28;20037;-83
2023/09/27 08:13:24;;;;;;;27.73;22.90;;;17.10;99.90;;;;;;5037230;28;20391;-83
2023/09/27 08:15:50;;;;;;;27.58;22.35;;;17.30;99.90;;;;;;5023543;28;20037;-83
2023/09/27 08:18:18;;;;;;;32.45;22.88;;;17.40;99.90;;;;;;5015043;28;20037;-83
2023/09/27 08:20:44;;;;;;;29.05;22.73;;;17.40;99.90;;;;;;5024792;28;20450;-83
2023/09/27 08:23:10;;;;;;;30.73;22.83;;;17.50;99.90;;;;;;5023189;28;20115;-83
2023/09/27 08:25:37;;;;;;;31.90;22.10;;;17.70;99.90;;;;;;5022756;28;20209;-83
2023/09/27 08:28:05;;;;;;;28.25;22.85;;;17.90;99.90;;;;;;5015333;28;20517;-83
2023/09/27 08:30:31;;;;;;;27.02;22.35;;;18.10;99.90;;;;;;5021325;28;20079;-83
2023/09/27 08:32:57;;;;;;;28.55;21.08;;;18.20;99.90;;;;;;5021795;28;20383;-83
2023/09/27 08:35:23;;;;;;;27.92;21.55;;;18.30;99.90;;;;;;5035071;28;20199;-83
2023/09/27 08:37:48;;;;;;;29.45;21.92;;;18.40;99.90;;;;;;5040429;28;20112;-83
2023/09/27 08:40:15;;;;;;;27.25;20.33;;;18.60;99.90;;;;;;5025833;28;20057;-83
2023/09/27 08:42:42;;;;;;;25.50;20.48;;;18.60;99.90;;;;;;5024880;28;20045;-84
2023/09/27 08:45:16;;;;;;;26.60;20.67;;;18.60;99.90;;;;;;5038365;28;20067;-83
2023/09/27 08:47:44;;;;;;;28.63;19.88;;;18.70;99.90;;;;;;5039626;28;20390;-83
2023/09/27 08:50:15;;;;;;;23.83;19.60;;;18.80;99.90;;;;;;5036057;28;20049;-83
2023/09/27 08:52:49;;;;;;;26.20;19.45;;;18.90;99.90;;;;;;5037130;28;20418;-83
2023/09/27 08:55:16;;;;;;;25.33;18.63;;;19.10;99.90;;;;;;5025459;28;20099;-83
2023/09/27 08:57:50;;;;;;;26.52;19.05;;;19.20;99.90;;;;;;5040500;28;20040;-83
2023/09/27 09:00:20;;;;;;;25.02;19.48;;;19.40;99.90;;;;;;5024760;28;20588;-84
2023/09/27 09:02:52;;;;;;;25.77;18.20;;;19.60;99.90;;;;;;5024416;28;20059;-83
2023/09/27 09:05:18;;;;;;;24.98;17.15;;;19.70;99.90;;;;;;5025236;28;20045;-83
2023/09/27 09:07:44;;;;;;;21.52;18.05;;;19.90;99.90;;;;;;5042450;28;20060;-84
2023/09/27 09:10:15;;;;;;;26.58;18.15;;;20.00;99.90;;;;;;5028345;28;20369;-83
2023/09/27 09:12:42;;;;;;;20.92;15.93;;;20.00;99.90;;;;;;5019451;28;20044;-83
2023/09/27 09:15:26;;;;;;;24.35;17.17;;;20.10;99.90;;;;;;5034683;28;20124;-83
2023/09/27 09:17:53;;;;;;;20.33;15.45;;;20.40;99.90;;;;;;5028181;28;20032;-83
2023/09/27 09:22:46;;;;;;;20.60;13.65;;;20.30;99.90;;;;;;5038322;28;20074;-84
2023/09/27 09:25:11;;;;;;;23.58;14.82;;;20.40;99.90;;;;;;5028977;28;20110;-83
2023/09/27 09:27:38;;;;;;;16.13;12.27;;;20.60;99.90;;;;;;5021534;28;20492;-83
2023/09/27 09:30:11;;;;;;;16.10;11.43;;;20.80;99.90;;;;;;5021426;28;20048;-84
2023/09/27 09:32:48;;;;;;;19.25;12.40;;;20.90;99.90;;;;;;5032994;28;20037;-84
2023/09/27 09:35:31;;;;;;;17.90;11.10;;;21.10;99.90;;;;;;5026161;28;20037;-83
2023/09/27 09:38:01;;;;;;;16.92;9.85;;;21.30;99.90;;;;;;5026703;28;20070;-83
2023/09/27 09:40:28;;;;;;;14.90;10.43;;;21.50;99.90;;;;;;5023459;28;20147;-84
2023/09/27 09:43:00;;;;;;;13.30;9.60;;;21.10;99.90;;;;;;5018444;28;20028;-83
2023/09/27 09:45:29;;;;;;;12.27;7.85;;;21.50;99.90;;;;;;5024771;28;20492;-84
2023/09/27 09:47:56;;;;;;;12.05;7.32;;;21.70;99.90;;;;;;5020161;28;20393;-84
2023/09/27 09:50:22;;;;;;;14.05;10.13;;;21.80;99.90;;;;;;5025176;28;20106;-84
2023/09/27 09:52:53;;;;;;;12.63;8.52;;;21.50;99.90;;;;;;5026365;28;20037;-83
2023/09/27 09:55:21;;;;;;;13.50;9.18;;;21.60;99.90;;;;;;5034610;28;20576;-84
2023/09/27 09:57:55;;;;;;;12.35;9.05;;;21.70;99.90;;;;;;5020529;28;20745;-83
2023/09/27 10:00:27;;;;;;;;;;;21.40;99.90;;;;;;5018963;28;20098;-84
2023/09/27 10:03:04;;;;;;;13.18;8.20;;;21.60;99.90;;;;;;5036797;28;19917;-84
2023/09/27 10:05:38;;;;;;;9.48;7.30;;;21.90;99.90;;;;;;5039039;28;20102;-83
2023/09/27 10:08:07;;;;;;;12.25;7.28;;;22.50;99.90;;;;;;5020370;28;20049;-83
2023/09/27 10:10:34;;;;;;;13.40;6.65;;;22.70;99.90;;;;;;5027808;28;20048;-83
2023/09/27 10:13:04;;;;;;;9.52;6.43;;;22.80;99.90;;;;;;5025177;28;20527;-83
2023/09/27 10:15:33;;;;;;;10.27;6.15;;;22.60;99.90;;;;;;5024744;28;20534;-84
2023/09/27 10:18:21;;;;;;;9.07;5.28;;;22.60;99.90;;;;;;5019761;28;20112;-84
2023/09/27 10:21:12;;;;;;;8.95;5.38;;;22.40;99.90;;;;;;5016454;28;20395;-83
2023/09/27 10:23:47;;;;;;;7.13;4.28;;;22.50;99.90;;;;;;5038040;28;20312;-84
2023/09/27 10:26:20;;;;;;;;;;;22.50;99.90;;;;;;5019620;28;20236;-84
2023/09/27 10:29:04;;;;;;;6.15;4.30;;;22.50;99.90;;;;;;5037545;28;20336;-84
2023/09/27 10:32:02;;;;;;;9.75;4.47;;;22.50;99.90;;;;;;5038649;28;20075;-84
2023/09/27 10:34:28;;;;;;;5.20;3.58;;;22.40;99.90;;;;;;5033238;28;20623;-84
2023/09/27 10:36:54;;;;;;;6.72;3.88;;;22.40;99.90;;;;;;5023761;28;20036;-84
2023/09/27 10:39:20;;;;;;;7.60;4.10;;;22.60;99.90;;;;;;5026618;28;20041;-84
2023/09/27 10:41:53;;;;;;;6.72;4.10;;;22.40;99.90;;;;;;5024665;28;20037;-84
2023/09/27 10:44:32;;;;;;;6.10;3.85;;;22.50;99.90;;;;;;5036036;28;20029;-84
2023/09/27 10:47:07;;;;;;;7.72;3.80;;;22.60;99.90;;;;;;5025857;28;20314;-84
2023/09/27 10:49:40;;;;;;;;;;;22.60;99.90;;;;;;5022745;28;20377;-84
2023/09/27 10:52:16;;;;;;;5.68;3.70;;;22.60;99.90;;;;;;5024985;28;19964;-83
2023/09/27 10:54:45;;;;;;;6.30;3.83;;;22.40;99.90;;;;;;5026897;28;20711;-84
2023/09/27 10:57:12;;;;;;;8.48;3.65;;;22.30;99.90;;;;;;5036416;28;20083;-84
2023/09/27 10:59:38;;;;;;;7.03;4.32;;;22.50;99.90;;;;;;5024208;28;20462;-84
2023/09/27 11:02:03;;;;;;;7.10;3.90;;;22.40;99.90;;;;;;5020344;28;20037;-84
2023/09/27 11:04:30;;;;;;;7.55;4.22;;;22.40;99.90;;;;;;5024150;28;20095;-84
2023/09/27 11:06:56;;;;;;;7.95;4.10;;;22.60;99.90;;;;;;5017231;28;20049;-84
2023/09/27 11:09:23;;;;;;;8.50;3.72;;;22.50;99.90;;;;;;5027918;28;20114;-84
2023/09/27 11:11:57;;;;;;;10.07;4.80;;;22.50;99.90;;;;;;5030950;28;20404;-84
2023/09/27 11:14:34;;;;;;;6.63;4.13;;;22.30;99.90;;;;;;5034252;28;20045;-85
2023/09/27 11:17:28;;;;;;;5.82;3.92;;;22.00;99.90;;;;;;5031792;28;20084;-84
2023/09/27 11:19:54;;;;;;;7.63;3.80;;;22.30;99.90;;;;;;5038781;28;20109;-84
2023/09/27 11:22:27;;;;;;;6.70;3.75;;;22.30;99.90;;;;;;5024525;28;20478;-84
2023/09/27 11:24:53;;;;;;;5.78;4.05;;;22.20;99.90;;;;;;5038788;28;20044;-84
2023/09/27 11:27:21;;;;;;;6.82;4.18;;;22.40;99.90;;;;;;5031411;28;20543;-84
2023/09/27 11:29:51;;;;;;;5.85;3.92;;;22.60;99.90;;;;;;5023221;28;20059;-85
2023/09/27 11:32:16;;;;;;;6.95;4.10;;;22.70;99.90;;;;;;5008264;28;20035;-85
2023/09/27 11:34:42;;;;;;;6.15;3.90;;;22.50;99.90;;;;;;5023318;28;20040;-84
2023/09/27 11:37:17;;;;;;;6.95;3.63;;;22.50;99.90;;;;;;5038086;28;20057;-85
2023/09/27 11:39:54;;;;;;;7.70;3.90;;;22.50;99.90;;;;;;5018268;28;20059;-84
2023/09/27 11:42:25;;;;;;;5.40;3.63;;;22.60;99.90;;;;;;5014782;28;20520;-84
2023/09/27 11:45:04;;;;;;;7.13;4.18;;;22.90;99.90;;;;;;5039422;28;20037;-84
2023/09/27 11:47:31;;;;;;;6.05;4.28;;;23.00;99.90;;;;;;5033350;28;20124;-84
2023/09/27 11:49:57;;;;;;;5.10;3.60;;;23.20;99.90;;;;;;5029416;28;20117;-85
2023/09/27 11:52:23;;;;;;;5.30;3.63;;;23.70;99.90;;;;;;5016948;28;20052;-84
2023/09/27 11:54:49;;;;;;;4.82;3.80;;;23.50;99.90;;;;;;5016486;28;20044;-84
2023/09/27 11:57:15;;;;;;;6.55;4.70;;;23.60;99.90;;;;;;5034628;28;20089;-84
2023/09/27 11:59:40;;;;;;;6.50;4.03;;;23.50;99.90;;;;;;5032352;28;20118;-85
2023/09/27 12:02:08;;;;;;;7.65;4.25;;;23.50;99.90;;;;;;5027087;28;20044;-85
2023/09/27 12:04:34;;;;;;;6.28;4.38;;;23.40;99.90;;;;;;5033107;28;20518;-84
2023/09/27 12:07:02;;;;;;;8.00;4.63;;;23.20;99.90;;;;;;5033930;28;20105;-85
2023/09/27 12:09:28;;;;;;;7.57;4.70;;;23.20;99.90;;;;;;5034017;28;20056;-85
2023/09/27 12:11:54;;;;;;;7.78;5.47;;;23.00;99.90;;;;;;5032309;28;20487;-84
2023/09/27 12:14:19;;;;;;;6.75;5.00;;;22.90;99.90;;;;;;5039476;28;20418;-84
2023/09/27 12:16:45;;;;;;;8.93;5.45;;;23.20;99.90;;;;;;5029224;28;20036;-84
2023/09/27 12:19:10;;;;;;;9.45;5.38;;;23.20;99.90;;;;;;5038103;28;20063;-84
2023/09/27 12:21:36;;;;;;;7.35;5.13;;;23.20;99.90;;;;;;5037618;28;20036;-84
2023/09/27 12:24:03;;;;;;;8.27;5.60;;;23.50;99.90;;;;;;5050350;28;20538;-84
2023/09/27 12:26:29;;;;;;;10.32;5.60;;;23.60;99.90;;;;;;5029199;28;20036;-84
2023/09/27 12:28:58;;;;;;;9.60;5.20;;;23.50;99.90;;;;;;5026368;28;20044;-85
2023/09/27 12:31:24;;;;;;;7.80;5.38;;;23.40;99.90;;;;;;5043297;28;20051;-85
2023/09/27 12:33:49;;;;;;;9.45;5.40;;;23.30;99.90;;;;;;5038375;28;20127;-85
2023/09/27 12:36:15;;;;;;;9.02;6.18;;;23.50;99.90;;;;;;5028242;28;20057;-85
2023/09/27 12:38:42;;;;;;;9.23;6.68;;;23.60;99.90;;;;;;5026688;28;20033;-84